sensor_id;sensor_type;location;lat;lon;timestamp;temperature;humidity
67273;DHT22;54190;49.770;9.250;2023-02-15T00:01:43;1.70;99.90
67273;DHT22;54190;49.770;9.250;2023-02-15T00:04:09;1.70;99.90
67273;DHT22;54190;49.770;9.250;2023-02-15T00:06:35;1.60;99.90
67273;DHT22;54190;49.770;9.250;2023-02-15T00:09:02;1.60;99.90
67273;DHT22;54190;49.770;9.250;2023-02-15T00:11:28;1.60;99.90
67273;DHT22;54190;49.770;9.250;2023-02-15T00:14:28;1.60;99.90
67273;DHT22;54190;49.770;9.250;2023-02-15T00:16:55;1.60;99.90
67273;DHT22;54190;49.770;9.250;2023-02-15T00:19:21;1.60;99.90
67273;DHT22;54190;49.770;9.250;2023-02-15T00:21:47;1.70;99.90
67273;DHT22;54190;49.770;9.250;2023-02-15T00:24:15;1.70;99.90
67273;DHT22;54190;49.770;9.250;2023-02-15T00:26:42;1.60;99.90
67273;DHT22;54190;49.770;9.250;2023-02-15T00:29:10;1.60;99.90
67273;DHT22;54190;49.770;9.250;2023-02-15T00:31:36;1.60;99.90
67273;DHT22;54190;49.770;9.250;2023-02-15T00:34:17;1.60;99.90
67273;DHT22;54190;49.770;9.250;2023-02-15T00:36:43;1.60;99.90
67273;DHT22;54190;49.770;9.250;2023-02-15T00:39:10;1.60;99.90
67273;DHT22;54190;49.770;9.250;2023-02-15T00:41:36;1.60;99.90
67273;DHT22;54190;49.770;9.250;2023-02-15T00:44:05;1.70;99.90
67273;DHT22;54190;49.770;9.250;2023-02-15T00:46:31;1.60;99.90
67273;DHT22;54190;49.770;9.250;2023-02-15T00:48:57;1.60;99.90
67273;DHT22;54190;49.770;9.250;2023-02-15T00:51:24;1.60;99.90
67273;DHT22;54190;49.770;9.250;2023-02-15T00:53:49;1.60;99.90
67273;DHT22;54190;49.770;9.250;2023-02-15T00:56:15;1.60;99.90
67273;DHT22;54190;49.770;9.250;2023-02-15T00:58:41;1.60;99.90
67273;DHT22;54190;49.770;9.250;2023-02-15T01:01:14;1.50;99.90
67273;DHT22;54190;49.770;9.250;2023-02-15T01:03:40;1.50;99.90
67273;DHT22;54190;49.770;9.250;2023-02-15T01:06:09;1.40;99.90
67273;DHT22;54190;49.770;9.250;2023-02-15T01:08:34;1.40;99.90
67273;DHT22;54190;49.770;9.250;2023-02-15T01:11:09;1.40;99.90
67273;DHT22;54190;49.770;9.250;2023-02-15T01:13:35;1.40;99.90
67273;DHT22;54190;49.770;9.250;2023-02-15T01:16:02;1.40;99.90
67273;DHT22;54190;49.770;9.250;2023-02-15T01:18:27;1.50;99.90
67273;DHT22;54190;49.770;9.250;2023-02-15T01:20:53;1.50;99.90
67273;DHT22;54190;49.770;9.250;2023-02-15T01:23:19;1.50;99.90
67273;DHT22;54190;49.770;9.250;2023-02-15T01:25:45;1.50;99.90
67273;DHT22;54190;49.770;9.250;2023-02-15T01:28:11;1.50;99.90
67273;DHT22;54190;49.770;9.250;2023-02-15T01:30:38;1.50;99.90
67273;DHT22;54190;49.770;9.250;2023-02-15T01:33:03;1.50;99.90
67273;DHT22;54190;49.770;9.250;2023-02-15T01:35:30;1.50;99.90
67273;DHT22;54190;49.770;9.250;2023-02-15T01:37:57;1.50;99.90
67273;DHT22;54190;49.770;9.250;2023-02-15T01:40:24;1.50;99.90
67273;DHT22;54190;49.770;9.250;2023-02-15T01:42:52;1.50;99.90
67273;DHT22;54190;49.770;9.250;2023-02-15T01:45:28;1.50;99.90
67273;DHT22;54190;49.770;9.250;2023-02-15T01:48:08;1.50;99.90
67273;DHT22;54190;49.770;9.250;2023-02-15T01:50:44;1.50;99.90
67273;DHT22;54190;49.770;9.250;2023-02-15T01:55:55;1.50;99.90
67273;DHT22;54190;49.770;9.250;2023-02-15T01:58:24;1.50;99.90
67273;DHT22;54190;49.770;9.250;2023-02-15T02:00:50;1.50;99.90
67273;DHT22;54190;49.770;9.250;2023-02-15T02:03:16;1.50;99.90
67273;DHT22;54190;49.770;9.250;2023-02-15T02:05:43;1.50;99.90
67273;DHT22;54190;49.770;9.250;2023-02-15T02:08:11;1.50;99.90
67273;DHT22;54190;49.770;9.250;2023-02-15T02:10:37;1.50;99.90
67273;DHT22;54190;49.770;9.250;2023-02-15T02:13:05;1.50;99.90
67273;DHT22;54190;49.770;9.250;2023-02-15T02:15:39;1.50;99.90
67273;DHT22;54190;49.770;9.250;2023-02-15T02:20:50;1.50;99.90
67273;DHT22;54190;49.770;9.250;2023-02-15T02:34:29;1.40;99.90
67273;DHT22;54190;49.770;9.250;2023-02-15T02:37:12;1.50;99.90
67273;DHT22;54190;49.770;9.250;2023-02-15T02:39:53;1.50;99.90
67273;DHT22;54190;49.770;9.250;2023-02-15T02:42:39;1.50;99.90
67273;DHT22;54190;49.770;9.250;2023-02-15T02:45:15;1.50;99.90
67273;DHT22;54190;49.770;9.250;2023-02-15T02:47:50;1.50;99.90
67273;DHT22;54190;49.770;9.250;2023-02-15T02:50:25;1.40;99.90
67273;DHT22;54190;49.770;9.250;2023-02-15T02:52:53;1.40;99.90
67273;DHT22;54190;49.770;9.250;2023-02-15T02:58:09;1.30;99.90
67273;DHT22;54190;49.770;9.250;2023-02-15T03:00:44;1.30;99.90
67273;DHT22;54190;49.770;9.250;2023-02-15T03:03:13;1.30;99.90
67273;DHT22;54190;49.770;9.250;2023-02-15T03:05:44;1.30;99.90
67273;DHT22;54190;49.770;9.250;2023-02-15T03:08:14;1.40;99.90
67273;DHT22;54190;49.770;9.250;2023-02-15T03:10:51;1.40;99.90
67273;DHT22;54190;49.770;9.250;2023-02-15T03:13:18;1.50;99.90
67273;DHT22;54190;49.770;9.250;2023-02-15T03:15:47;1.50;99.90
67273;DHT22;54190;49.770;9.250;2023-02-15T03:18:39;1.50;99.90
67273;DHT22;54190;49.770;9.250;2023-02-15T03:21:06;1.50;99.90
67273;DHT22;54190;49.770;9.250;2023-02-15T03:23:36;1.40;99.90
67273;DHT22;54190;49.770;9.250;2023-02-15T03:26:05;1.50;99.90
67273;DHT22;54190;49.770;9.250;2023-02-15T03:28:38;1.50;99.90
67273;DHT22;54190;49.770;9.250;2023-02-15T03:31:07;1.50;99.90
67273;DHT22;54190;49.770;9.250;2023-02-15T03:33:36;1.40;99.90
67273;DHT22;54190;49.770;9.250;2023-02-15T03:41:39;1.40;99.90
67273;DHT22;54190;49.770;9.250;2023-02-15T03:44:46;1.50;99.90
67273;DHT22;54190;49.770;9.250;2023-02-15T03:47:16;1.50;99.90
67273;DHT22;54190;49.770;9.250;2023-02-15T03:49:47;1.50;99.90
67273;DHT22;54190;49.770;9.250;2023-02-15T03:52:14;1.40;99.90
67273;DHT22;54190;49.770;9.250;2023-02-15T03:54:43;1.50;99.90
67273;DHT22;54190;49.770;9.250;2023-02-15T03:57:19;1.50;99.90
67273;DHT22;54190;49.770;9.250;2023-02-15T04:00:17;1.50;99.90
67273;DHT22;54190;49.770;9.250;2023-02-15T04:03:30;1.40;99.90
67273;DHT22;54190;49.770;9.250;2023-02-15T04:05:57;1.40;99.90
67273;DHT22;54190;49.770;9.250;2023-02-15T04:08:23;1.40;99.90
67273;DHT22;54190;49.770;9.250;2023-02-15T04:11:08;1.40;99.90
67273;DHT22;54190;49.770;9.250;2023-02-15T04:13:34;1.40;99.90
67273;DHT22;54190;49.770;9.250;2023-02-15T04:16:00;1.40;99.90
67273;DHT22;54190;49.770;9.250;2023-02-15T04:18:39;1.30;99.90
67273;DHT22;54190;49.770;9.250;2023-02-15T04:21:27;1.30;99.90
67273;DHT22;54190;49.770;9.250;2023-02-15T04:24:12;1.30;99.90
67273;DHT22;54190;49.770;9.250;2023-02-15T04:26:57;1.20;99.90
67273;DHT22;54190;49.770;9.250;2023-02-15T04:29:24;1.20;99.90
67273;DHT22;54190;49.770;9.250;2023-02-15T04:31:51;1.30;99.90
67273;DHT22;54190;49.770;9.250;2023-02-15T04:34:17;1.30;99.90
67273;DHT22;54190;49.770;9.250;2023-02-15T04:36:43;1.30;99.90
67273;DHT22;54190;49.770;9.250;2023-02-15T04:39:11;1.30;99.90
67273;DHT22;54190;49.770;9.250;2023-02-15T04:41:37;1.30;99.90
67273;DHT22;54190;49.770;9.250;2023-02-15T04:44:03;1.30;99.90
67273;DHT22;54190;49.770;9.250;2023-02-15T04:46:29;1.20;99.90
67273;DHT22;54190;49.770;9.250;2023-02-15T04:48:55;1.20;99.90
67273;DHT22;54190;49.770;9.250;2023-02-15T04:51:21;1.20;99.90
67273;DHT22;54190;49.770;9.250;2023-02-15T04:53:46;1.20;99.90
67273;DHT22;54190;49.770;9.250;2023-02-15T04:56:12;1.30;99.90
67273;DHT22;54190;49.770;9.250;2023-02-15T04:58:38;1.30;99.90
67273;DHT22;54190;49.770;9.250;2023-02-15T05:01:07;1.20;99.90
67273;DHT22;54190;49.770;9.250;2023-02-15T05:03:34;1.30;99.90
67273;DHT22;54190;49.770;9.250;2023-02-15T05:05:59;1.30;99.90
67273;DHT22;54190;49.770;9.250;2023-02-15T05:08:25;1.20;99.90
67273;DHT22;54190;49.770;9.250;2023-02-15T05:10:51;1.20;99.90
67273;DHT22;54190;49.770;9.250;2023-02-15T05:13:16;1.20;99.90
67273;DHT22;54190;49.770;9.250;2023-02-15T05:15:50;1.20;99.90
67273;DHT22;54190;49.770;9.250;2023-02-15T05:18:17;1.20;99.90
67273;DHT22;54190;49.770;9.250;2023-02-15T05:20:43;1.20;99.90
67273;DHT22;54190;49.770;9.250;2023-02-15T05:23:09;1.20;99.90
67273;DHT22;54190;49.770;9.250;2023-02-15T05:25:35;1.20;99.90
67273;DHT22;54190;49.770;9.250;2023-02-15T05:28:20;1.20;99.90
67273;DHT22;54190;49.770;9.250;2023-02-15T05:31:00;1.20;99.90
67273;DHT22;54190;49.770;9.250;2023-02-15T05:33:27;1.20;99.90
67273;DHT22;54190;49.770;9.250;2023-02-15T05:35:52;1.20;99.90
67273;DHT22;54190;49.770;9.250;2023-02-15T05:38:18;1.30;99.90
67273;DHT22;54190;49.770;9.250;2023-02-15T05:40:44;1.30;99.90
67273;DHT22;54190;49.770;9.250;2023-02-15T05:43:09;1.30;99.90
67273;DHT22;54190;49.770;9.250;2023-02-15T05:45:35;1.20;99.90
67273;DHT22;54190;49.770;9.250;2023-02-15T05:48:00;1.20;99.90
67273;DHT22;54190;49.770;9.250;2023-02-15T05:50:26;1.20;99.90
67273;DHT22;54190;49.770;9.250;2023-02-15T05:52:52;1.20;99.90
67273;DHT22;54190;49.770;9.250;2023-02-15T05:55:18;1.10;99.90
67273;DHT22;54190;49.770;9.250;2023-02-15T05:57:44;1.10;99.90
67273;DHT22;54190;49.770;9.250;2023-02-15T06:00:10;1.10;99.90
67273;DHT22;54190;49.770;9.250;2023-02-15T06:02:39;1.00;99.90
67273;DHT22;54190;49.770;9.250;2023-02-15T06:05:06;1.00;99.90
67273;DHT22;54190;49.770;9.250;2023-02-15T06:07:32;1.00;99.90
67273;DHT22;54190;49.770;9.250;2023-02-15T06:09:57;1.00;99.90
67273;DHT22;54190;49.770;9.250;2023-02-15T06:12:23;1.00;99.90
67273;DHT22;54190;49.770;9.250;2023-02-15T06:14:49;0.80;99.90
67273;DHT22;54190;49.770;9.250;2023-02-15T06:17:15;0.80;99.90
67273;DHT22;54190;49.770;9.250;2023-02-15T06:19:42;0.80;99.90
67273;DHT22;54190;49.770;9.250;2023-02-15T06:22:08;0.80;99.90
67273;DHT22;54190;49.770;9.250;2023-02-15T06:24:34;0.90;99.90
67273;DHT22;54190;49.770;9.250;2023-02-15T06:26:59;0.90;99.90
67273;DHT22;54190;49.770;9.250;2023-02-15T06:29:25;0.90;99.90
67273;DHT22;54190;49.770;9.250;2023-02-15T06:31:50;0.90;99.90
67273;DHT22;54190;49.770;9.250;2023-02-15T06:34:16;0.90;99.90
67273;DHT22;54190;49.770;9.250;2023-02-15T06:36:42;0.80;99.90
67273;DHT22;54190;49.770;9.250;2023-02-15T06:39:07;0.80;99.90
67273;DHT22;54190;49.770;9.250;2023-02-15T06:41:33;0.80;99.90
67273;DHT22;54190;49.770;9.250;2023-02-15T06:43:59;0.80;99.90
67273;DHT22;54190;49.770;9.250;2023-02-15T06:46:24;0.90;99.90
67273;DHT22;54190;49.770;9.250;2023-02-15T06:48:50;0.80;99.90
67273;DHT22;54190;49.770;9.250;2023-02-15T06:51:16;0.80;99.90
67273;DHT22;54190;49.770;9.250;2023-02-15T06:53:41;0.80;99.90
67273;DHT22;54190;49.770;9.250;2023-02-15T06:56:09;0.80;99.90
67273;DHT22;54190;49.770;9.250;2023-02-15T06:58:39;0.70;99.90
67273;DHT22;54190;49.770;9.250;2023-02-15T07:01:05;0.60;99.90
67273;DHT22;54190;49.770;9.250;2023-02-15T07:03:32;0.60;99.90
67273;DHT22;54190;49.770;9.250;2023-02-15T07:05:59;0.70;99.90
67273;DHT22;54190;49.770;9.250;2023-02-15T07:08:26;0.80;99.90
67273;DHT22;54190;49.770;9.250;2023-02-15T07:10:54;0.80;99.90
67273;DHT22;54190;49.770;9.250;2023-02-15T07:13:20;0.80;99.90
67273;DHT22;54190;49.770;9.250;2023-02-15T07:15:47;0.80;99.90
67273;DHT22;54190;49.770;9.250;2023-02-15T07:18:13;0.80;99.90
67273;DHT22;54190;49.770;9.250;2023-02-15T07:20:39;0.90;99.90
67273;DHT22;54190;49.770;9.250;2023-02-15T07:23:07;0.90;99.90
67273;DHT22;54190;49.770;9.250;2023-02-15T07:25:33;0.80;99.90
67273;DHT22;54190;49.770;9.250;2023-02-15T07:28:00;0.70;99.90
67273;DHT22;54190;49.770;9.250;2023-02-15T07:30:27;0.70;99.90
67273;DHT22;54190;49.770;9.250;2023-02-15T07:32:57;0.70;99.90
67273;DHT22;54190;49.770;9.250;2023-02-15T07:35:53;0.70;99.90
67273;DHT22;54190;49.770;9.250;2023-02-15T07:38:20;0.80;99.90
67273;DHT22;54190;49.770;9.250;2023-02-15T07:40:46;0.80;99.90
67273;DHT22;54190;49.770;9.250;2023-02-15T07:43:12;0.80;99.90
67273;DHT22;54190;49.770;9.250;2023-02-15T07:45:38;0.90;99.90
67273;DHT22;54190;49.770;9.250;2023-02-15T07:48:04;0.80;99.90
67273;DHT22;54190;49.770;9.250;2023-02-15T07:50:31;0.70;99.90
67273;DHT22;54190;49.770;9.250;2023-02-15T07:52:56;0.80;99.90
67273;DHT22;54190;49.770;9.250;2023-02-15T07:55:22;0.80;99.90
67273;DHT22;54190;49.770;9.250;2023-02-15T07:57:49;0.80;99.90
67273;DHT22;54190;49.770;9.250;2023-02-15T08:00:17;0.90;99.90
67273;DHT22;54190;49.770;9.250;2023-02-15T08:02:50;0.90;99.90
67273;DHT22;54190;49.770;9.250;2023-02-15T08:05:36;1.00;99.90
67273;DHT22;54190;49.770;9.250;2023-02-15T08:08:01;1.00;99.90
67273;DHT22;54190;49.770;9.250;2023-02-15T08:10:27;1.00;99.90
67273;DHT22;54190;49.770;9.250;2023-02-15T08:13:13;1.00;99.90
67273;DHT22;54190;49.770;9.250;2023-02-15T08:15:38;1.00;99.90
67273;DHT22;54190;49.770;9.250;2023-02-15T08:18:04;1.00;99.90
67273;DHT22;54190;49.770;9.250;2023-02-15T08:20:30;1.00;99.90
67273;DHT22;54190;49.770;9.250;2023-02-15T08:22:55;1.00;99.90
67273;DHT22;54190;49.770;9.250;2023-02-15T08:25:21;1.00;99.90
67273;DHT22;54190;49.770;9.250;2023-02-15T08:27:47;1.00;99.90
67273;DHT22;54190;49.770;9.250;2023-02-15T08:30:13;1.00;99.90
67273;DHT22;54190;49.770;9.250;2023-02-15T08:32:39;1.00;99.90
67273;DHT22;54190;49.770;9.250;2023-02-15T08:35:05;1.00;99.90
67273;DHT22;54190;49.770;9.250;2023-02-15T08:37:32;1.10;99.90
67273;DHT22;54190;49.770;9.250;2023-02-15T08:39:57;1.10;99.90
67273;DHT22;54190;49.770;9.250;2023-02-15T08:42:24;1.20;99.90
67273;DHT22;54190;49.770;9.250;2023-02-15T08:44:49;1.10;99.90
67273;DHT22;54190;49.770;9.250;2023-02-15T08:47:16;1.10;99.90
67273;DHT22;54190;49.770;9.250;2023-02-15T08:49:42;1.10;99.90
67273;DHT22;54190;49.770;9.250;2023-02-15T08:52:08;1.10;99.90
67273;DHT22;54190;49.770;9.250;2023-02-15T08:54:34;1.20;99.90
67273;DHT22;54190;49.770;9.250;2023-02-15T08:56:59;1.20;99.90
67273;DHT22;54190;49.770;9.250;2023-02-15T08:59:25;1.30;99.90
67273;DHT22;54190;49.770;9.250;2023-02-15T09:01:52;1.30;99.90
67273;DHT22;54190;49.770;9.250;2023-02-15T09:04:20;1.30;99.90
67273;DHT22;54190;49.770;9.250;2023-02-15T09:06:47;1.20;99.90
67273;DHT22;54190;49.770;9.250;2023-02-15T09:09:14;1.20;99.90
67273;DHT22;54190;49.770;9.250;2023-02-15T09:11:42;1.10;99.90
67273;DHT22;54190;49.770;9.250;2023-02-15T09:14:11;1.00;99.90
67273;DHT22;54190;49.770;9.250;2023-02-15T09:16:40;1.00;99.90
67273;DHT22;54190;49.770;9.250;2023-02-15T09:19:06;1.10;99.90
67273;DHT22;54190;49.770;9.250;2023-02-15T09:21:33;1.20;99.90
67273;DHT22;54190;49.770;9.250;2023-02-15T09:24:03;1.20;99.90
67273;DHT22;54190;49.770;9.250;2023-02-15T09:26:31;1.30;99.90
67273;DHT22;54190;49.770;9.250;2023-02-15T09:28:59;1.30;99.90
67273;DHT22;54190;49.770;9.250;2023-02-15T09:31:28;1.40;99.90
67273;DHT22;54190;49.770;9.250;2023-02-15T09:33:54;1.40;99.90
67273;DHT22;54190;49.770;9.250;2023-02-15T09:38:48;1.50;99.90
67273;DHT22;54190;49.770;9.250;2023-02-15T09:49:54;1.80;99.90
67273;DHT22;54190;49.770;9.250;2023-02-15T09:52:48;1.80;99.90
67273;DHT22;54190;49.770;9.250;2023-02-15T10:13:11;2.00;99.90
67273;DHT22;54190;49.770;9.250;2023-02-15T10:16:06;2.10;99.90
67273;DHT22;54190;49.770;9.250;2023-02-15T10:18:55;2.20;99.90
67273;DHT22;54190;49.770;9.250;2023-02-15T10:27:20;2.40;99.90
67273;DHT22;54190;49.770;9.250;2023-02-15T10:29:54;2.50;99.90
67273;DHT22;54190;49.770;9.250;2023-02-15T10:32:26;2.50;99.90
67273;DHT22;54190;49.770;9.250;2023-02-15T10:43:58;2.20;99.90
67273;DHT22;54190;49.770;9.250;2023-02-15T10:51:35;2.00;99.90
67273;DHT22;54190;49.770;9.250;2023-02-15T10:54:36;2.00;99.90
67273;DHT22;54190;49.770;9.250;2023-02-15T10:57:19;2.10;99.90
67273;DHT22;54190;49.770;9.250;2023-02-15T10:59:58;2.20;99.90
67273;DHT22;54190;49.770;9.250;2023-02-15T11:08:09;3.20;99.90
67273;DHT22;54190;49.770;9.250;2023-02-15T11:13:12;3.60;99.90
67273;DHT22;54190;49.770;9.250;2023-02-15T11:15:47;3.50;99.90
67273;DHT22;54190;49.770;9.250;2023-02-15T11:18:34;3.40;99.90
67273;DHT22;54190;49.770;9.250;2023-02-15T11:21:05;3.30;99.90
67273;DHT22;54190;49.770;9.250;2023-02-15T11:23:35;3.30;99.90
67273;DHT22;54190;49.770;9.250;2023-02-15T11:26:31;3.30;99.90
67273;DHT22;54190;49.770;9.250;2023-02-15T11:28:59;3.30;99.90
67273;DHT22;54190;49.770;9.250;2023-02-15T11:31:29;3.30;99.90
67273;DHT22;54190;49.770;9.250;2023-02-15T11:34:03;3.30;99.90
67273;DHT22;54190;49.770;9.250;2023-02-15T11:36:34;3.30;99.90
67273;DHT22;54190;49.770;9.250;2023-02-15T11:39:07;3.30;99.90
67273;DHT22;54190;49.770;9.250;2023-02-15T11:41:47;3.40;99.90
67273;DHT22;54190;49.770;9.250;2023-02-15T11:44:31;3.40;99.90
67273;DHT22;54190;49.770;9.250;2023-02-15T11:46:58;3.20;99.90
67273;DHT22;54190;49.770;9.250;2023-02-15T11:49:34;3.30;99.90
67273;DHT22;54190;49.770;9.250;2023-02-15T11:52:11;3.30;99.90
67273;DHT22;54190;49.770;9.250;2023-02-15T11:54:43;3.50;99.90
67273;DHT22;54190;49.770;9.250;2023-02-15T11:57:14;3.50;99.90
67273;DHT22;54190;49.770;9.250;2023-02-15T11:59:43;3.40;99.90
67273;DHT22;54190;49.770;9.250;2023-02-15T12:02:20;3.20;99.90
67273;DHT22;54190;49.770;9.250;2023-02-15T12:04:54;3.10;99.90
67273;DHT22;54190;49.770;9.250;2023-02-15T12:07:37;3.00;99.90
67273;DHT22;54190;49.770;9.250;2023-02-15T12:12:42;3.00;99.90
67273;DHT22;54190;49.770;9.250;2023-02-15T12:15:10;2.90;99.90
67273;DHT22;54190;49.770;9.250;2023-02-15T12:17:48;3.00;99.90
67273;DHT22;54190;49.770;9.250;2023-02-15T12:22:49;3.10;99.90
67273;DHT22;54190;49.770;9.250;2023-02-15T12:25:30;3.00;99.90
67273;DHT22;54190;49.770;9.250;2023-02-15T12:27:58;3.00;99.90
67273;DHT22;54190;49.770;9.250;2023-02-15T12:30:31;2.90;99.90
67273;DHT22;54190;49.770;9.250;2023-02-15T12:33:27;2.90;99.90
67273;DHT22;54190;49.770;9.250;2023-02-15T12:36:06;2.70;99.90
67273;DHT22;54190;49.770;9.250;2023-02-15T12:38:34;2.70;99.90
67273;DHT22;54190;49.770;9.250;2023-02-15T12:41:05;2.80;99.90
67273;DHT22;54190;49.770;9.250;2023-02-15T12:43:46;3.00;99.90
67273;DHT22;54190;49.770;9.250;2023-02-15T12:46:25;3.20;99.90
67273;DHT22;54190;49.770;9.250;2023-02-15T12:55:01;3.10;99.90
67273;DHT22;54190;49.770;9.250;2023-02-15T12:57:25;3.20;99.90
67273;DHT22;54190;49.770;9.250;2023-02-15T12:59:59;3.30;99.90
67273;DHT22;54190;49.770;9.250;2023-02-15T13:02:48;3.30;99.90
67273;DHT22;54190;49.770;9.250;2023-02-15T13:05:27;3.30;99.90
67273;DHT22;54190;49.770;9.250;2023-02-15T13:07:58;3.30;99.90
67273;DHT22;54190;49.770;9.250;2023-02-15T13:10:28;3.30;99.90
67273;DHT22;54190;49.770;9.250;2023-02-15T13:12:55;3.20;99.90
67273;DHT22;54190;49.770;9.250;2023-02-15T13:15:26;3.20;99.90
67273;DHT22;54190;49.770;9.250;2023-02-15T13:17:54;3.20;99.90
67273;DHT22;54190;49.770;9.250;2023-02-15T13:20:21;3.20;99.90
67273;DHT22;54190;49.770;9.250;2023-02-15T13:22:50;3.30;99.90
67273;DHT22;54190;49.770;9.250;2023-02-15T13:25:23;3.40;99.90
67273;DHT22;54190;49.770;9.250;2023-02-15T13:27:59;3.50;99.90
67273;DHT22;54190;49.770;9.250;2023-02-15T13:32:55;3.60;99.90
67273;DHT22;54190;49.770;9.250;2023-02-15T13:35:23;3.70;99.90
67273;DHT22;54190;49.770;9.250;2023-02-15T13:37:56;4.00;99.90
67273;DHT22;54190;49.770;9.250;2023-02-15T13:46:26;4.50;99.90
67273;DHT22;54190;49.770;9.250;2023-02-15T13:49:13;4.60;99.90
67273;DHT22;54190;49.770;9.250;2023-02-15T13:54:55;5.00;99.90
67273;DHT22;54190;49.770;9.250;2023-02-15T14:00:30;5.20;99.90
67273;DHT22;54190;49.770;9.250;2023-02-15T14:13:59;5.60;99.90
67273;DHT22;54190;49.770;9.250;2023-02-15T14:16:53;5.60;99.90
67273;DHT22;54190;49.770;9.250;2023-02-15T14:19:28;5.70;99.90
67273;DHT22;54190;49.770;9.250;2023-02-15T14:24:41;5.70;99.90
67273;DHT22;54190;49.770;9.250;2023-02-15T14:27:24;5.70;99.90
67273;DHT22;54190;49.770;9.250;2023-02-15T14:35:05;5.70;99.90
67273;DHT22;54190;49.770;9.250;2023-02-15T14:59:39;5.30;99.90
67273;DHT22;54190;49.770;9.250;2023-02-15T15:04:32;5.60;99.90
67273;DHT22;54190;49.770;9.250;2023-02-15T15:07:21;5.60;99.90
67273;DHT22;54190;49.770;9.250;2023-02-15T15:12:51;5.70;99.90
67273;DHT22;54190;49.770;9.250;2023-02-15T15:17:55;5.80;99.90
67273;DHT22;54190;49.770;9.250;2023-02-15T15:42:29;5.00;99.90
67273;DHT22;54190;49.770;9.250;2023-02-15T15:50:17;4.60;99.90
67273;DHT22;54190;49.770;9.250;2023-02-15T15:52:48;4.40;99.90
67273;DHT22;54190;49.770;9.250;2023-02-15T15:55:20;4.40;99.90
67273;DHT22;54190;49.770;9.250;2023-02-15T15:57:51;4.40;99.90
67273;DHT22;54190;49.770;9.250;2023-02-15T16:00:40;4.30;99.90
67273;DHT22;54190;49.770;9.250;2023-02-15T16:03:16;4.10;99.90
67273;DHT22;54190;49.770;9.250;2023-02-15T16:05:45;4.00;99.90
67273;DHT22;54190;49.770;9.250;2023-02-15T16:08:11;3.80;99.90
67273;DHT22;54190;49.770;9.250;2023-02-15T16:10:36;3.70;99.90
67273;DHT22;54190;49.770;9.250;2023-02-15T16:13:05;3.50;99.90
67273;DHT22;54190;49.770;9.250;2023-02-15T16:15:46;3.50;99.90
67273;DHT22;54190;49.770;9.250;2023-02-15T16:18:20;3.50;99.90
67273;DHT22;54190;49.770;9.250;2023-02-15T16:20:53;3.50;99.90
67273;DHT22;54190;49.770;9.250;2023-02-15T16:28:51;3.20;99.90
67273;DHT22;54190;49.770;9.250;2023-02-15T16:31:21;3.20;99.90
67273;DHT22;54190;49.770;9.250;2023-02-15T16:33:52;3.10;99.90
67273;DHT22;54190;49.770;9.250;2023-02-15T16:41:24;3.20;99.90
67273;DHT22;54190;49.770;9.250;2023-02-15T16:43:52;3.10;99.90
67273;DHT22;54190;49.770;9.250;2023-02-15T16:46:30;3.10;99.90
67273;DHT22;54190;49.770;9.250;2023-02-15T16:49:03;3.00;99.90
67273;DHT22;54190;49.770;9.250;2023-02-15T16:51:32;2.90;99.90
67273;DHT22;54190;49.770;9.250;2023-02-15T16:54:07;2.80;99.90
67273;DHT22;54190;49.770;9.250;2023-02-15T16:56:33;2.70;99.90
67273;DHT22;54190;49.770;9.250;2023-02-15T16:59:00;2.60;99.90
67273;DHT22;54190;49.770;9.250;2023-02-15T17:01:29;2.50;99.90
67273;DHT22;54190;49.770;9.250;2023-02-15T17:09:25;2.30;99.90
67273;DHT22;54190;49.770;9.250;2023-02-15T17:11:51;2.30;99.90
67273;DHT22;54190;49.770;9.250;2023-02-15T17:14:28;2.40;99.90
67273;DHT22;54190;49.770;9.250;2023-02-15T17:17:05;2.40;99.90
67273;DHT22;54190;49.770;9.250;2023-02-15T17:19:40;2.40;99.90
67273;DHT22;54190;49.770;9.250;2023-02-15T17:22:25;2.40;99.90
67273;DHT22;54190;49.770;9.250;2023-02-15T17:25:01;2.40;99.90
67273;DHT22;54190;49.770;9.250;2023-02-15T17:27:29;2.40;99.90
67273;DHT22;54190;49.770;9.250;2023-02-15T17:30:00;2.40;99.90
67273;DHT22;54190;49.770;9.250;2023-02-15T17:32:29;2.40;99.90
67273;DHT22;54190;49.770;9.250;2023-02-15T17:37:50;2.40;99.90
67273;DHT22;54190;49.770;9.250;2023-02-15T17:40:28;2.30;99.90
67273;DHT22;54190;49.770;9.250;2023-02-15T17:42:54;2.30;99.90
67273;DHT22;54190;49.770;9.250;2023-02-15T17:45:21;2.30;99.90
67273;DHT22;54190;49.770;9.250;2023-02-15T17:47:48;2.20;99.90
67273;DHT22;54190;49.770;9.250;2023-02-15T17:50:23;2.20;99.90
67273;DHT22;54190;49.770;9.250;2023-02-15T17:52:50;2.10;99.90
67273;DHT22;54190;49.770;9.250;2023-02-15T17:55:18;2.10;99.90
67273;DHT22;54190;49.770;9.250;2023-02-15T17:58:06;2.00;99.90
67273;DHT22;54190;49.770;9.250;2023-02-15T18:00:41;2.00;99.90
67273;DHT22;54190;49.770;9.250;2023-02-15T18:03:29;1.90;99.90
67273;DHT22;54190;49.770;9.250;2023-02-15T18:06:16;1.90;99.90
67273;DHT22;54190;49.770;9.250;2023-02-15T18:09:00;1.90;99.90
67273;DHT22;54190;49.770;9.250;2023-02-15T18:11:45;1.90;99.90
67273;DHT22;54190;49.770;9.250;2023-02-15T18:14:13;1.80;99.90
67273;DHT22;54190;49.770;9.250;2023-02-15T18:16:41;1.80;99.90
67273;DHT22;54190;49.770;9.250;2023-02-15T18:19:20;1.70;99.90
67273;DHT22;54190;49.770;9.250;2023-02-15T18:21:47;1.70;99.90
67273;DHT22;54190;49.770;9.250;2023-02-15T18:24:18;1.70;99.90
67273;DHT22;54190;49.770;9.250;2023-02-15T18:26:45;1.60;99.90
67273;DHT22;54190;49.770;9.250;2023-02-15T18:29:11;1.60;99.90
67273;DHT22;54190;49.770;9.250;2023-02-15T18:31:37;1.60;99.90
67273;DHT22;54190;49.770;9.250;2023-02-15T18:34:04;1.60;99.90
67273;DHT22;54190;49.770;9.250;2023-02-15T18:36:41;1.60;99.90
67273;DHT22;54190;49.770;9.250;2023-02-15T18:39:41;1.50;99.90
67273;DHT22;54190;49.770;9.250;2023-02-15T18:42:30;1.50;99.90
67273;DHT22;54190;49.770;9.250;2023-02-15T18:45:03;1.50;99.90
67273;DHT22;54190;49.770;9.250;2023-02-15T18:47:35;1.50;99.90
67273;DHT22;54190;49.770;9.250;2023-02-15T18:50:00;1.40;99.90
67273;DHT22;54190;49.770;9.250;2023-02-15T18:52:29;1.30;99.90
67273;DHT22;54190;49.770;9.250;2023-02-15T18:54:59;1.30;99.90
67273;DHT22;54190;49.770;9.250;2023-02-15T18:57:27;1.30;99.90
67273;DHT22;54190;49.770;9.250;2023-02-15T18:59:53;1.20;99.90
67273;DHT22;54190;49.770;9.250;2023-02-15T19:02:19;1.20;99.90
67273;DHT22;54190;49.770;9.250;2023-02-15T19:04:45;1.20;99.90
67273;DHT22;54190;49.770;9.250;2023-02-15T19:09:44;1.00;99.90
67273;DHT22;54190;49.770;9.250;2023-02-15T19:12:12;0.90;99.90
67273;DHT22;54190;49.770;9.250;2023-02-15T19:14:38;0.80;99.90
67273;DHT22;54190;49.770;9.250;2023-02-15T19:17:03;0.80;99.90
67273;DHT22;54190;49.770;9.250;2023-02-15T19:19:29;0.90;99.90
67273;DHT22;54190;49.770;9.250;2023-02-15T19:21:55;0.90;99.90
67273;DHT22;54190;49.770;9.250;2023-02-15T19:24:23;1.00;99.90
67273;DHT22;54190;49.770;9.250;2023-02-15T19:26:50;0.90;99.90
67273;DHT22;54190;49.770;9.250;2023-02-15T19:29:25;0.80;99.90
67273;DHT22;54190;49.770;9.250;2023-02-15T19:31:51;0.80;99.90
67273;DHT22;54190;49.770;9.250;2023-02-15T19:34:17;0.70;99.90